Time,TemperatureF,DewpointF,PressureIn,WindDirection,WindDirectionDegrees,WindSpeedMPH,WindSpeedGustMPH,Humidity,HourlyPrecipIn,Conditions,Clouds,dailyrainin,SoftwareType,DateUTC
2013-08-31 00:02:00,65.3,61.0,28.98,North,0,1.2,0.0,86,0.00,CLR,,0.00,WeatherDisplay:10.37,2013-08-31 05:02:00,
2013-08-31 00:07:00,65.3,61.0,28.98,North,0,1.2,0.0,86,0.00,CLR,,0.00,WeatherDisplay:10.37,2013-08-31 05:07:00,
2013-08-31 00:12:00,64.9,61.0,28.98,North,0,4.6,4.6,87,0.00,CLR,,0.00,WeatherDisplay:10.37,2013-08-31 05:12:00,
2013-08-31 00:17:00,64.9,61.0,28.99,NE,45,3.5,3.5,87,0.00,CLR,,0.00,WeatherDisplay:10.37,2013-08-31 05:17:00,
2013-08-31 00:22:00,64.9,60.6,28.98,NE,45,2.3,2.3,86,0.00,CLR,,0.00,WeatherDisplay:10.37,2013-08-31 05:22:00,
2013-08-31 00:27:00,64.8,60.8,28.98,North,0,3.5,3.5,87,0.00,CLR,,0.00,WeatherDisplay:10.37,2013-08-31 05:27:00,
2013-08-31 00:32:00,64.6,60.6,28.98,North,0,3.5,3.5,87,0.00,CLR,,0.00,WeatherDisplay:10.37,2013-08-31 05:32:00,
2013-08-31 00:37:00,64.4,60.4,28.98,NE,45,2.3,2.3,87,0.00,CLR,,0.00,WeatherDisplay:10.37,2013-08-31 05:37:00,
2013-08-31 00:42:00,64.2,60.6,28.98,NE,45,3.5,3.5,88,0.00,CLR,,0.00,WeatherDisplay:10.37,2013-08-31 05:42:00,
2013-08-31 00:47:00,64.2,60.6,28.97,NE,45,3.5,3.5,88,0.00,CLR,,0.00,WeatherDisplay:10.37,2013-08-31 05:47:00,
2013-08-31 00:52:00,64.2,60.6,28.98,North,0,2.3,2.3,88,0.00,CLR,,0.00,WeatherDisplay:10.37,2013-08-31 05:52:00,
2013-08-31 00:57:00,64.2,60.6,28.98,NE,45,3.5,3.5,88,0.00,CLR,,0.00,WeatherDisplay:10.37,2013-08-31 05:57:00,
2013-08-31 01:02:00,64.2,60.6,28.98,NE,45,3.5,3.5,88,0.00,CLR,,0.00,WeatherDisplay:10.37,2013-08-31 06:02:00,
2013-08-31 01:07:00,64.2,60.6,28.98,NE,45,3.5,3.5,88,0.00,CLR,,0.00,WeatherDisplay:10.37,2013-08-31 06:07:00,
2013-08-31 01:12:00,63.9,60.6,28.97,North,0,2.3,2.3,89,0.00,CLR,,0.00,WeatherDisplay:10.37,2013-08-31 06:12:00,
2013-08-31 01:17:00,63.7,60.4,28.97,NE,45,1.2,1.2,89,0.00,CLR,,0.00,WeatherDisplay:10.37,2013-08-31 06:17:00,
2013-08-31 01:22:00,63.5,60.2,28.98,North,0,3.5,3.5,89,0.00,CLR,,0.00,WeatherDisplay:10.37,2013-08-31 06:22:00,
2013-08-31 01:27:00,63.5,60.2,28.97,North,0,3.5,3.5,89,0.00,CLR,,0.00,WeatherDisplay:10.37,2013-08-31 06:27:00,
2013-08-31 01:32:00,63.3,60.3,28.97,NE,45,3.5,3.5,90,0.00,CLR,,0.00,WeatherDisplay:10.37,2013-08-31 06:32:00,
2013-08-31 01:37:00,63.1,60.2,28.97,North,0,2.3,2.3,90,0.00,CLR,,0.00,WeatherDisplay:10.37,2013-08-31 06:37:00,
2013-08-31 01:42:00,63.1,60.2,28.97,North,0,3.5,3.5,90,0.00,CLR,,0.00,WeatherDisplay:10.37,2013-08-31 06:42:00,
2013-08-31 01:47:00,63.0,60.0,28.97,North,0,1.2,1.2,90,0.00,CLR,,0.00,WeatherDisplay:10.37,2013-08-31 06:47:00,
2013-08-31 01:52:00,63.0,60.0,28.97,North,0,3.5,3.5,90,0.00,CLR,,0.00,WeatherDisplay:10.37,2013-08-31 06:52:00,
2013-08-31 01:57:00,62.8,59.8,28.97,North,0,3.5,3.5,90,0.00,CLR,,0.00,WeatherDisplay:10.37,2013-08-31 06:57:00,
2013-08-31 02:02:00,62.8,60.1,28.97,North,0,3.5,3.5,91,0.00,CLR,,0.00,WeatherDisplay:10.37,2013-08-31 07:02:00,
2013-08-31 02:07:00,62.6,59.9,28.96,NE,45,1.2,1.2,91,0.00,CLR,,0.00,WeatherDisplay:10.37,2013-08-31 07:07:00,
2013-08-31 02:12:00,62.6,59.9,28.97,NE,45,1.2,1.2,91,0.00,CLR,,0.00,WeatherDisplay:10.37,2013-08-31 07:12:00,
2013-08-31 02:17:00,62.4,59.8,28.96,North,0,2.3,2.3,91,0.00,CLR,,0.00,WeatherDisplay:10.37,2013-08-31 07:17:00,
2013-08-31 02:22:00,62.4,59.8,28.96,North,0,2.3,2.3,91,0.00,CLR,,0.00,WeatherDisplay:10.37,2013-08-31 07:22:00,
2013-08-31 02:27:00,62.2,59.9,28.96,North,0,4.6,4.6,92,0.00,CLR,,0.00,WeatherDisplay:10.37,2013-08-31 07:27:00,
2013-08-31 02:32:00,62.1,59.7,28.96,North,0,2.3,2.3,92,0.00,CLR,,0.00,WeatherDisplay:10.37,2013-08-31 07:32:00,
2013-08-31 02:37:00,62.2,59.9,28.96,North,0,3.8,3.8,92,0.00,CLR,,0.00,WeatherDisplay:10.37,2013-08-31 07:37:00,
2013-08-31 02:42:00,62.1,59.7,28.96,NE,45,2.3,2.3,92,0.00,CLR,,0.00,WeatherDisplay:10.37,2013-08-31 07:42:00,
2013-08-31 02:47:00,62.1,59.7,28.95,North,0,3.5,3.5,92,0.00,CLR,,0.00,WeatherDisplay:10.37,2013-08-31 07:47:00,
2013-08-31 02:52:00,61.9,59.5,28.96,NE,45,2.3,2.3,92,0.00,CLR,,0.00,WeatherDisplay:10.37,2013-08-31 07:52:00,
2013-08-31 02:57:00,61.9,59.8,28.97,NE,45,0.0,0.0,93,0.00,CLR,,0.00,WeatherDisplay:10.37,2013-08-31 07:57:00,
2013-08-31 03:02:00,61.9,59.8,28.97,North,0,2.3,2.3,93,0.00,CLR,,0.00,WeatherDisplay:10.37,2013-08-31 08:02:00,
2013-08-31 03:07:00,61.7,59.7,28.97,NE,45,2.3,2.3,93,0.00,CLR,,0.00,WeatherDisplay:10.37,2013-08-31 08:07:00,
2013-08-31 03:12:00,61.9,59.8,28.98,North,0,2.3,2.3,93,0.00,CLR,,0.00,WeatherDisplay:10.37,2013-08-31 08:12:00,
2013-08-31 03:17:00,61.5,59.5,28.98,North,0,1.2,0.0,93,0.00,CLR,,0.00,WeatherDisplay:10.37,2013-08-31 08:17:00,
2013-08-31 03:22:00,61.3,59.3,28.97,North,0,1.2,0.0,93,0.00,CLR,,0.00,WeatherDisplay:10.37,2013-08-31 08:22:00,
2013-08-31 03:27:00,61.3,59.3,28.98,North,0,2.3,2.3,93,0.00,CLR,,0.00,WeatherDisplay:10.37,2013-08-31 08:27:00,
2013-08-31 03:32:00,61.2,59.1,28.98,North,0,2.3,2.3,93,0.00,CLR,,0.00,WeatherDisplay:10.37,2013-08-31 08:32:00,
2013-08-31 03:37:00,61.2,59.4,28.97,NE,45,2.3,2.3,94,0.00,CLR,,0.00,WeatherDisplay:10.37,2013-08-31 08:37:00,
2013-08-31 03:42:00,61.2,59.4,28.99,North,0,1.6,0.0,94,0.00,CLR,,0.00,WeatherDisplay:10.37,2013-08-31 08:42:00,
2013-08-31 03:47:00,61.0,59.2,28.98,North,0,0.0,0.0,94,0.00,CLR,,0.00,WeatherDisplay:10.37,2013-08-31 08:47:00,
2013-08-31 03:52:00,61.0,59.2,28.98,North,0,0.0,0.0,94,0.00,CLR,,0.00,WeatherDisplay:10.37,2013-08-31 08:52:00,
2013-08-31 03:57:00,60.8,59.1,28.98,North,0,1.2,1.2,94,0.00,CLR,,0.00,WeatherDisplay:10.37,2013-08-31 08:57:00,
2013-08-31 04:02:00,60.8,59.1,28.98,North,0,0.0,0.0,94,0.00,CLR,,0.00,WeatherDisplay:10.37,2013-08-31 09:02:00,
2013-08-31 04:07:00,60.8,59.1,28.98,North,0,0.0,0.0,94,0.00,CLR,,0.00,WeatherDisplay:10.37,2013-08-31 09:07:00,
2013-08-31 04:12:00,60.4,58.7,28.98,North,0,0.0,0.0,94,0.00,CLR,,0.00,WeatherDisplay:10.37,2013-08-31 09:12:00,
2013-08-31 04:17:00,60.4,58.7,28.98,SW,225,2.3,2.3,94,0.00,CLR,,0.00,WeatherDisplay:10.37,2013-08-31 09:17:00,
2013-08-31 04:22:00,60.4,58.7,28.99,SW,225,1.2,0.0,94,0.00,CLR,,0.00,WeatherDisplay:10.37,2013-08-31 09:22:00,
2013-08-31 04:27:00,60.3,58.5,28.99,SW,225,0.0,0.0,94,0.00,CLR,,0.00,WeatherDisplay:10.37,2013-08-31 09:27:00,
2013-08-31 04:32:00,60.4,58.7,28.99,NW,315,1.2,1.2,94,0.00,CLR,,0.00,WeatherDisplay:10.37,2013-08-31 09:32:00,
2013-08-31 04:37:00,60.4,59.0,28.99,NW,315,1.2,0.0,95,0.00,CLR,,0.00,WeatherDisplay:10.37,2013-08-31 09:37:00,
2013-08-31 04:42:00,60.3,58.8,28.98,NW,315,1.2,0.0,95,0.00,CLR,,0.00,WeatherDisplay:10.37,2013-08-31 09:42:00,
2013-08-31 04:47:00,60.3,58.5,28.98,NW,315,0.0,0.0,94,0.00,CLR,,0.00,WeatherDisplay:10.37,2013-08-31 09:47:00,
2013-08-31 04:52:00,60.1,58.6,28.98,NW,315,0.0,0.0,95,0.00,CLR,,0.00,WeatherDisplay:10.37,2013-08-31 09:52:00,
2013-08-31 04:57:00,60.1,58.6,28.98,NW,315,0.0,0.0,95,0.00,CLR,,0.00,WeatherDisplay:10.37,2013-08-31 09:57:00,
2013-08-31 05:02:00,59.9,58.5,28.98,NW,315,0.0,0.0,95,0.00,CLR,,0.00,WeatherDisplay:10.37,2013-08-31 10:02:00,
2013-08-31 05:07:00,60.3,58.8,28.98,North,0,0.0,1.6,95,0.00,CLR,,0.00,WeatherDisplay:10.37,2013-08-31 10:07:00,
2013-08-31 05:12:00,60.4,59.3,28.99,North,0,3.5,3.5,96,0.00,CLR,,0.00,WeatherDisplay:10.37,2013-08-31 10:12:00,
2013-08-31 05:17:00,60.4,59.3,28.99,North,0,2.3,2.3,96,0.00,CLR,,0.00,WeatherDisplay:10.37,2013-08-31 10:17:00,
2013-08-31 05:22:00,60.4,59.0,28.98,North,0,2.3,2.3,95,0.00,CLR,,0.00,WeatherDisplay:10.37,2013-08-31 10:22:00,
2013-08-31 05:27:00,60.1,58.6,28.98,NNE,22,3.5,3.5,95,0.00,CLR,,0.00,WeatherDisplay:10.37,2013-08-31 10:27:00,
2013-08-31 05:32:00,59.7,58.3,28.98,North,0,3.5,3.5,95,0.00,CLR,,0.00,WeatherDisplay:10.37,2013-08-31 10:32:00,
2013-08-31 05:37:00,59.9,58.8,28.98,North,0,3.5,3.5,96,0.00,CLR,,0.00,WeatherDisplay:10.37,2013-08-31 10:37:00,
2013-08-31 05:42:00,59.9,58.8,28.98,North,0,4.6,4.6,96,0.00,CLR,,0.00,WeatherDisplay:10.37,2013-08-31 10:42:00,
2013-08-31 05:48:00,59.7,58.6,28.98,WNW,292,4.6,4.6,96,0.00,CLR,,0.00,WeatherDisplay:10.37,2013-08-31 10:48:00,
2013-08-31 05:53:00,59.9,58.8,28.98,North,0,3.5,3.5,96,0.00,CLR,,0.00,WeatherDisplay:10.37,2013-08-31 10:53:00,
2013-08-31 05:58:00,59.7,58.6,28.98,NE,45,4.6,4.6,96,0.00,CLR,,0.00,WeatherDisplay:10.37,2013-08-31 10:58:00,
2013-08-31 06:03:00,59.9,58.8,28.98,NE,45,2.3,2.3,96,0.00,CLR,,0.00,WeatherDisplay:10.37,2013-08-31 11:03:00,
2013-08-31 06:08:00,60.1,58.9,28.98,North,0,3.5,3.5,96,0.00,CLR,,0.00,WeatherDisplay:10.37,2013-08-31 11:08:00,
2013-08-31 06:13:00,60.1,58.9,28.98,NE,45,2.3,0.0,96,0.00,CLR,,0.00,WeatherDisplay:10.37,2013-08-31 11:13:00,
2013-08-31 06:18:00,60.3,59.1,28.98,NE,45,2.3,2.3,96,0.00,CLR,,0.00,WeatherDisplay:10.37,2013-08-31 11:18:00,
2013-08-31 06:23:00,60.3,59.1,28.98,NE,45,2.3,2.3,96,0.00,CLR,,0.00,WeatherDisplay:10.37,2013-08-31 11:23:00,
2013-08-31 06:28:00,60.4,59.3,28.98,North,0,4.6,4.6,96,0.00,CLR,,0.00,WeatherDisplay:10.37,2013-08-31 11:28:00,
2013-08-31 06:33:00,60.6,59.5,28.98,NE,45,1.2,1.2,96,0.00,CLR,,0.00,WeatherDisplay:10.37,2013-08-31 11:33:00,
2013-08-31 06:38:00,60.6,59.5,28.98,North,0,2.3,2.3,96,0.00,CLR,,0.00,WeatherDisplay:10.37,2013-08-31 11:38:00,
2013-08-31 06:43:00,60.6,59.5,28.98,North,0,3.5,3.5,96,0.00,CLR,,0.00,WeatherDisplay:10.37,2013-08-31 11:43:00,
2013-08-31 06:48:00,60.8,59.7,28.98,North,0,5.8,5.8,96,0.00,CLR,,0.00,WeatherDisplay:10.37,2013-08-31 11:48:00,
2013-08-31 06:53:00,60.6,59.5,28.98,NE,45,3.5,3.5,96,0.00,CLR,,0.00,WeatherDisplay:10.37,2013-08-31 11:53:00,
2013-08-31 06:58:00,60.8,59.4,28.97,NE,45,3.5,3.5,95,0.00,CLR,,0.00,WeatherDisplay:10.37,2013-08-31 11:58:00,
2013-08-31 07:03:00,60.8,59.4,28.97,North,0,2.3,2.3,95,0.00,CLR,,0.00,WeatherDisplay:10.37,2013-08-31 12:03:00,
2013-08-31 07:08:00,60.8,59.4,28.97,North,0,5.8,5.8,95,0.00,CLR,,0.00,WeatherDisplay:10.37,2013-08-31 12:08:00,
2013-08-31 07:15:00,61.0,59.5,28.97,North,0,5.8,5.8,95,0.00,CLR,,0.00,WeatherDisplay:10.37,2013-08-31 12:15:00,
2013-08-31 07:20:00,61.0,59.5,28.96,NE,45,3.5,3.5,95,0.00,CLR,,0.00,WeatherDisplay:10.37,2013-08-31 12:20:00,
2013-08-31 07:25:00,61.2,59.7,28.96,NE,45,3.5,3.5,95,0.00,CLR,,0.00,WeatherDisplay:10.37,2013-08-31 12:25:00,
2013-08-31 07:30:00,61.2,59.4,28.96,NW,315,4.6,4.6,94,0.00,CLR,,0.00,WeatherDisplay:10.37,2013-08-31 12:30:00,
2013-08-31 07:35:00,61.3,59.9,28.97,NE,45,4.6,4.6,95,0.00,CLR,,0.00,WeatherDisplay:10.37,2013-08-31 12:35:00,
2013-08-31 07:40:00,61.5,59.8,28.96,East,90,3.5,3.5,94,0.00,CLR,,0.00,WeatherDisplay:10.37,2013-08-31 12:40:00,
2013-08-31 07:45:00,61.7,60.0,28.97,NE,45,4.6,4.6,94,0.00,CLR,,0.00,WeatherDisplay:10.37,2013-08-31 12:45:00,
2013-08-31 07:50:00,61.7,60.0,28.97,NE,45,3.5,3.5,94,0.00,CLR,,0.00,WeatherDisplay:10.37,2013-08-31 12:50:00,
2013-08-31 07:55:00,61.9,60.1,28.97,East,90,1.2,1.2,94,0.00,CLR,,0.00,WeatherDisplay:10.37,2013-08-31 12:55:00,
2013-08-31 08:00:00,61.9,59.8,28.98,NE,45,5.8,5.8,93,0.00,CLR,,0.00,WeatherDisplay:10.37,2013-08-31 13:00:00,
2013-08-31 08:05:00,61.9,59.8,28.97,NE,45,4.6,4.6,93,0.00,CLR,,0.00,WeatherDisplay:10.37,2013-08-31 13:05:00,
2013-08-31 08:10:00,62.4,60.4,28.98,North,0,3.5,3.5,93,0.00,CLR,,0.00,WeatherDisplay:10.37,2013-08-31 13:10:00,
2013-08-31 08:15:00,62.6,60.5,28.97,NE,45,3.5,3.5,93,0.00,CLR,,0.00,WeatherDisplay:10.37,2013-08-31 13:15:00,
2013-08-31 08:21:00,62.6,60.2,28.97,East,90,4.6,4.6,92,0.00,CLR,,0.00,WeatherDisplay:10.37,2013-08-31 13:21:00,
2013-08-31 08:25:00,63.0,60.6,28.97,NE,45,3.5,3.5,92,0.00,CLR,,0.00,WeatherDisplay:10.37,2013-08-31 13:25:00,
2013-08-31 08:31:00,63.5,60.8,28.97,NE,45,4.6,4.6,91,0.00,CLR,,0.00,WeatherDisplay:10.37,2013-08-31 13:31:00,
2013-08-31 08:36:00,63.9,61.2,28.97,North,0,3.5,3.5,91,0.00,CLR,,0.00,WeatherDisplay:10.37,2013-08-31 13:36:00,
2013-08-31 08:41:00,64.2,61.2,28.97,NE,45,4.6,4.6,90,0.00,CLR,,0.00,WeatherDisplay:10.37,2013-08-31 13:41:00,
2013-08-31 08:46:00,64.2,60.9,28.98,NE,45,4.6,4.6,89,0.00,CLR,,0.00,WeatherDisplay:10.37,2013-08-31 13:46:00,
2013-08-31 08:51:00,64.2,60.9,28.97,East,90,2.3,2.3,89,0.00,CLR,,0.00,WeatherDisplay:10.37,2013-08-31 13:51:00,
2013-08-31 08:56:00,64.0,60.7,28.97,East,90,1.2,0.0,89,0.00,CLR,,0.00,WeatherDisplay:10.37,2013-08-31 13:56:00,
2013-08-31 09:01:00,64.0,60.7,28.97,NW,315,3.5,3.5,89,0.00,CLR,,0.00,WeatherDisplay:10.37,2013-08-31 14:01:00,
2013-08-31 09:06:00,64.0,60.7,28.98,NW,315,3.5,3.5,89,0.00,CLR,,0.00,WeatherDisplay:10.37,2013-08-31 14:06:00,
2013-08-31 09:11:00,65.5,61.8,28.98,North,0,3.5,3.5,88,0.00,CLR,,0.00,WeatherDisplay:10.37,2013-08-31 14:11:00,
2013-08-31 09:16:00,65.7,61.4,28.98,East,90,3.5,3.5,86,0.00,CLR,,0.00,WeatherDisplay:10.37,2013-08-31 14:16:00,
2013-08-31 09:21:00,65.7,61.7,28.98,North,0,3.5,3.5,87,0.00,CLR,,0.00,WeatherDisplay:10.37,2013-08-31 14:21:00,
2013-08-31 09:26:00,66.0,61.7,28.98,West,270,1.2,1.2,86,0.00,CLR,,0.00,WeatherDisplay:10.37,2013-08-31 14:26:00,
2013-08-31 09:31:00,66.6,62.2,28.98,NE,45,1.2,0.0,86,0.00,CLR,,0.00,WeatherDisplay:10.37,2013-08-31 14:31:00,
2013-08-31 09:36:00,67.1,62.1,28.98,NW,315,3.5,3.5,84,0.00,CLR,,0.00,WeatherDisplay:10.37,2013-08-31 14:36:00,
2013-08-31 09:41:00,67.6,62.6,28.98,NE,45,0.0,0.0,84,0.00,CLR,,0.00,WeatherDisplay:10.37,2013-08-31 14:41:00,
2013-08-31 09:46:00,67.8,62.5,28.98,East,90,3.5,3.5,83,0.00,CLR,,0.00,WeatherDisplay:10.37,2013-08-31 14:46:00,
2013-08-31 09:51:00,68.0,62.3,28.98,East,90,2.3,2.3,82,0.00,CLR,,0.00,WeatherDisplay:10.37,2013-08-31 14:51:00,
2013-08-31 09:56:00,68.4,62.3,28.98,East,90,3.5,3.5,81,0.00,CLR,,0.00,WeatherDisplay:10.37,2013-08-31 14:56:00,
2013-08-31 10:01:00,68.5,62.5,28.98,SW,225,1.2,0.0,81,0.00,CLR,,0.00,WeatherDisplay:10.37,2013-08-31 15:01:00,
2013-08-31 10:06:00,68.7,62.7,28.98,East,90,3.5,3.5,81,0.00,CLR,,0.00,WeatherDisplay:10.37,2013-08-31 15:06:00,
2013-08-31 10:11:00,69.1,62.6,28.98,SW,225,3.5,3.5,80,0.00,CLR,,0.00,WeatherDisplay:10.37,2013-08-31 15:11:00,
2013-08-31 10:16:00,69.6,62.8,28.97,East,90,4.6,4.6,79,0.00,CLR,,0.00,WeatherDisplay:10.37,2013-08-31 15:16:00,
2013-08-31 10:21:00,70.2,63.0,28.97,NW,315,2.3,2.3,78,0.00,CLR,,0.00,WeatherDisplay:10.37,2013-08-31 15:21:00,
2013-08-31 10:26:00,70.7,62.8,28.97,East,90,3.8,3.8,76,0.00,CLR,,0.00,WeatherDisplay:10.37,2013-08-31 15:26:00,
2013-08-31 10:31:00,70.7,62.8,28.97,East,90,2.3,2.3,76,0.00,CLR,,0.00,WeatherDisplay:10.37,2013-08-31 15:31:00,
2013-08-31 10:36:00,70.7,62.8,28.98,East,90,3.5,3.5,76,0.00,CLR,,0.00,WeatherDisplay:10.37,2013-08-31 15:36:00,
2013-08-31 10:41:00,70.7,62.4,28.97,NE,45,3.5,3.5,75,0.00,CLR,,0.00,WeatherDisplay:10.37,2013-08-31 15:41:00,
2013-08-31 10:46:00,71.2,62.9,28.97,NE,45,2.3,0.0,75,0.00,CLR,,0.00,WeatherDisplay:10.37,2013-08-31 15:46:00,
2013-08-31 10:51:00,72.0,62.0,28.98,NW,315,3.5,3.5,71,0.00,CLR,,0.00,WeatherDisplay:10.37,2013-08-31 15:51:00,
2013-08-31 10:56:00,72.7,63.1,28.97,NE,45,2.3,0.0,72,0.00,CLR,,0.00,WeatherDisplay:10.37,2013-08-31 15:56:00,
2013-08-31 11:01:00,73.6,63.6,28.97,SW,225,3.1,3.1,71,0.00,CLR,,0.00,WeatherDisplay:10.37,2013-08-31 16:01:00,
2013-08-31 11:06:00,73.6,63.2,28.97,South,180,3.5,3.5,70,0.00,CLR,,0.00,WeatherDisplay:10.37,2013-08-31 16:06:00,
2013-08-31 11:11:00,73.8,63.4,28.97,SW,225,3.5,3.5,70,0.00,CLR,,0.00,WeatherDisplay:10.37,2013-08-31 16:11:00,
2013-08-31 11:16:00,73.8,63.0,28.97,South,180,5.8,5.8,69,0.00,CLR,,0.00,WeatherDisplay:10.37,2013-08-31 16:16:00,
2013-08-31 11:21:00,72.7,63.1,28.97,South,180,3.5,0.0,72,0.00,CLR,,0.00,WeatherDisplay:10.37,2013-08-31 16:21:00,
2013-08-31 11:26:00,73.0,62.7,28.97,South,180,4.6,4.6,70,0.00,CLR,,0.00,WeatherDisplay:10.37,2013-08-31 16:26:00,
2013-08-31 11:31:00,73.2,63.2,28.97,SW,225,3.8,3.8,71,0.00,CLR,,0.00,WeatherDisplay:10.37,2013-08-31 16:31:00,
2013-08-31 11:36:00,73.6,63.2,28.97,North,0,3.5,0.0,70,0.00,CLR,,0.00,WeatherDisplay:10.37,2013-08-31 16:36:00,
2013-08-31 11:41:00,74.1,63.3,28.97,North,0,5.8,5.8,69,0.00,CLR,,0.00,WeatherDisplay:10.37,2013-08-31 16:41:00,
2013-08-31 11:47:00,74.8,63.1,28.97,NE,45,3.5,3.5,67,0.00,CLR,,0.00,WeatherDisplay:10.37,2013-08-31 16:47:00,
2013-08-31 11:52:00,76.5,62.9,28.97,South,180,4.6,0.0,63,0.00,CLR,,0.00,WeatherDisplay:10.37,2013-08-31 16:52:00,
2013-08-31 11:57:00,75.7,62.7,28.97,NW,315,3.5,0.0,64,0.00,CLR,,0.00,WeatherDisplay:10.37,2013-08-31 16:57:00,
2013-08-31 12:02:00,75.2,62.6,28.97,East,90,5.8,0.0,65,0.00,CLR,,0.00,WeatherDisplay:10.37,2013-08-31 17:02:00,
2013-08-31 12:07:00,75.6,63.0,28.97,SW,225,5.8,5.8,65,0.00,CLR,,0.00,WeatherDisplay:10.37,2013-08-31 17:07:00,
2013-08-31 12:12:00,76.3,63.2,28.97,East,90,2.3,0.0,64,0.00,CLR,,0.00,WeatherDisplay:10.37,2013-08-31 17:12:00,
2013-08-31 12:17:00,77.2,62.7,28.98,East,90,3.5,3.5,61,0.00,CLR,,0.00,WeatherDisplay:10.37,2013-08-31 17:17:00,
2013-08-31 12:22:00,76.5,62.5,28.98,East,90,1.2,0.0,62,0.00,CLR,,0.00,WeatherDisplay:10.37,2013-08-31 17:22:00,
2013-08-31 12:27:00,77.0,61.6,28.97,ENE,68,3.5,3.5,59,0.00,CLR,,0.00,WeatherDisplay:10.37,2013-08-31 17:27:00,
2013-08-31 12:32:00,77.5,62.1,28.97,East,90,3.5,3.5,59,0.00,CLR,,0.00,WeatherDisplay:10.37,2013-08-31 17:32:00,
2013-08-31 12:37:00,77.5,62.1,28.97,East,90,3.5,3.5,59,0.00,CLR,,0.00,WeatherDisplay:10.37,2013-08-31 17:37:00,
2013-08-31 12:42:00,78.8,61.8,28.96,East,90,3.5,3.5,56,0.00,CLR,,0.00,WeatherDisplay:10.37,2013-08-31 17:42:00,
2013-08-31 12:47:00,78.4,62.4,28.96,SE,135,5.8,5.8,58,0.00,CLR,,0.00,WeatherDisplay:10.37,2013-08-31 17:47:00,
2013-08-31 12:52:00,77.7,62.2,28.96,South,180,4.6,4.6,59,0.00,CLR,,0.00,WeatherDisplay:10.37,2013-08-31 17:52:00,
2013-08-31 12:57:00,78.3,62.8,28.96,South,180,5.8,5.8,59,0.00,CLR,,0.00,WeatherDisplay:10.37,2013-08-31 17:57:00,
2013-08-31 13:02:00,79.0,63.4,28.96,NW,315,2.3,2.3,59,0.00,CLR,,0.00,WeatherDisplay:10.37,2013-08-31 18:02:00,
2013-08-31 13:07:00,79.0,63.4,28.96,NW,315,2.3,2.3,59,0.00,CLR,,0.00,WeatherDisplay:10.37,2013-08-31 18:07:00,
2013-08-31 13:12:00,77.2,62.7,28.96,East,90,3.5,3.5,61,0.00,CLR,,0.00,WeatherDisplay:10.37,2013-08-31 18:12:00,
2013-08-31 13:17:00,77.0,63.4,28.96,East,90,3.5,3.5,63,0.00,CLR,,0.00,WeatherDisplay:10.37,2013-08-31 18:17:00,
2013-08-31 13:22:00,76.6,63.1,28.96,East,90,1.2,1.2,63,0.00,CLR,,0.00,WeatherDisplay:10.37,2013-08-31 18:22:00,
2013-08-31 13:27:00,76.3,62.8,28.97,NE,45,3.5,3.5,63,0.00,CLR,,0.00,WeatherDisplay:10.37,2013-08-31 18:27:00,
2013-08-31 13:32:00,75.7,62.7,28.96,NE,45,4.6,4.6,64,0.00,CLR,,0.00,WeatherDisplay:10.37,2013-08-31 18:32:00,
2013-08-31 13:37:00,76.1,63.5,28.95,East,90,1.2,0.0,65,0.00,CLR,,0.00,WeatherDisplay:10.37,2013-08-31 18:37:00,
2013-08-31 13:42:00,77.2,63.6,28.95,East,90,3.5,3.5,63,0.00,CLR,,0.00,WeatherDisplay:10.37,2013-08-31 18:42:00,
2013-08-31 13:47:00,78.6,63.1,28.95,South,180,5.8,5.8,59,0.00,CLR,,0.00,WeatherDisplay:10.37,2013-08-31 18:47:00,
2013-08-31 13:52:00,78.1,63.1,28.95,East,90,5.8,5.8,60,0.00,CLR,,0.00,WeatherDisplay:10.37,2013-08-31 18:52:00,
2013-08-31 13:57:00,77.4,62.9,28.95,SE,135,5.8,5.8,61,0.00,CLR,,0.00,WeatherDisplay:10.37,2013-08-31 18:57:00,
2013-08-31 14:02:00,77.5,62.6,28.95,East,90,3.5,3.5,60,0.00,CLR,,0.00,WeatherDisplay:10.37,2013-08-31 19:02:00,
2013-08-31 14:07:00,79.0,62.4,28.95,South,180,4.6,4.6,57,0.00,CLR,,0.00,WeatherDisplay:10.37,2013-08-31 19:07:00,
2013-08-31 14:12:00,79.9,62.8,28.95,South,180,6.9,6.9,56,0.00,CLR,,0.00,WeatherDisplay:10.37,2013-08-31 19:12:00,
2013-08-31 14:17:00,80.4,62.8,28.95,East,90,2.3,2.3,55,0.00,CLR,,0.00,WeatherDisplay:10.37,2013-08-31 19:17:00,
2013-08-31 14:22:00,79.7,62.1,28.95,East,90,4.6,4.6,55,0.00,CLR,,0.00,WeatherDisplay:10.37,2013-08-31 19:22:00,
2013-08-31 14:27:00,79.3,62.3,28.94,East,90,4.6,4.6,56,0.00,CLR,,0.00,WeatherDisplay:10.37,2013-08-31 19:27:00,
2013-08-31 14:32:00,80.1,62.9,28.94,SSW,202,5.8,5.8,56,0.00,CLR,,0.00,WeatherDisplay:10.37,2013-08-31 19:32:00,
2013-08-31 14:37:00,80.8,62.6,28.94,East,90,4.6,4.6,54,0.00,CLR,,0.00,WeatherDisplay:10.37,2013-08-31 19:37:00,
2013-08-31 14:42:00,81.3,62.6,28.93,SW,225,2.3,2.3,53,0.00,CLR,,0.00,WeatherDisplay:10.37,2013-08-31 19:42:00,
2013-08-31 14:47:00,81.7,62.3,28.94,SE,135,4.6,4.6,52,0.00,CLR,,0.00,WeatherDisplay:10.37,2013-08-31 19:47:00,
2013-08-31 14:52:00,80.6,62.4,28.93,South,180,6.9,6.9,54,0.00,CLR,,0.00,WeatherDisplay:10.37,2013-08-31 19:52:00,
2013-08-31 14:57:00,80.8,62.6,28.93,East,90,4.6,4.6,54,0.00,CLR,,0.00,WeatherDisplay:10.37,2013-08-31 19:57:00,
2013-08-31 15:02:00,81.5,63.3,28.93,East,90,3.5,3.5,54,0.00,CLR,,0.00,WeatherDisplay:10.37,2013-08-31 20:02:00,
2013-08-31 15:07:00,82.2,62.8,28.93,South,180,5.8,5.8,52,0.00,CLR,,0.00,WeatherDisplay:10.37,2013-08-31 20:07:00,
2013-08-31 15:12:00,82.4,63.0,28.93,East,90,3.5,3.5,52,0.00,CLR,,0.00,WeatherDisplay:10.37,2013-08-31 20:12:00,
2013-08-31 15:17:00,82.4,63.0,28.93,East,90,4.6,4.6,52,0.00,CLR,,0.00,WeatherDisplay:10.37,2013-08-31 20:17:00,
2013-08-31 15:22:00,81.1,62.4,28.92,SE,135,4.6,4.6,53,0.00,CLR,,0.00,WeatherDisplay:10.37,2013-08-31 20:22:00,
2013-08-31 15:27:00,81.3,62.6,28.93,East,90,3.5,3.5,53,0.00,CLR,,0.00,WeatherDisplay:10.37,2013-08-31 20:27:00,
2013-08-31 15:32:00,81.5,62.2,28.93,East,90,5.8,5.8,52,0.00,CLR,,0.00,WeatherDisplay:10.37,2013-08-31 20:32:00,
2013-08-31 15:37:00,82.2,63.4,28.93,SE,135,2.3,0.0,53,0.00,CLR,,0.00,WeatherDisplay:10.37,2013-08-31 20:37:00,
2013-08-31 15:42:00,82.9,64.0,28.93,East,90,3.5,3.5,53,0.00,CLR,,0.00,WeatherDisplay:10.37,2013-08-31 20:42:00,
2013-08-31 15:49:00,82.9,64.0,28.93,North,0,3.5,0.0,53,0.00,CLR,,0.00,WeatherDisplay:10.37,2013-08-31 20:49:00,
2013-08-31 15:54:00,81.5,62.2,28.92,East,90,5.8,5.8,52,0.00,CLR,,0.00,WeatherDisplay:10.37,2013-08-31 20:54:00,
2013-08-31 15:59:00,82.2,63.4,28.92,East,90,1.2,2.2,53,0.00,CLR,,0.00,WeatherDisplay:10.37,2013-08-31 20:59:00,
2013-08-31 16:04:00,82.4,63.0,28.92,SE,135,4.6,4.6,52,0.00,CLR,,0.00,WeatherDisplay:10.37,2013-08-31 21:04:00,
2013-08-31 16:09:00,82.0,62.7,28.92,East,90,3.5,3.5,52,0.00,CLR,,0.00,WeatherDisplay:10.37,2013-08-31 21:09:00,
2013-08-31 16:14:00,82.8,63.3,28.92,East,90,4.6,4.6,52,0.00,CLR,,0.00,WeatherDisplay:10.37,2013-08-31 21:14:00,
2013-08-31 16:19:00,82.0,62.7,28.92,East,90,3.5,3.5,52,0.00,CLR,,0.00,WeatherDisplay:10.37,2013-08-31 21:19:00,
2013-08-31 16:24:00,82.8,63.9,28.92,SE,135,5.8,5.8,53,0.00,CLR,,0.00,WeatherDisplay:10.37,2013-08-31 21:24:00,
2013-08-31 16:29:00,83.1,63.7,28.91,SE,135,3.5,3.5,52,0.00,CLR,,0.00,WeatherDisplay:10.37,2013-08-31 21:29:00,
2013-08-31 16:34:00,83.1,62.6,28.91,NE,45,3.5,3.5,50,0.00,CLR,,0.00,WeatherDisplay:10.37,2013-08-31 21:34:00,
2013-08-31 16:39:00,83.3,63.3,28.91,SE,135,3.5,3.5,51,0.00,CLR,,0.00,WeatherDisplay:10.37,2013-08-31 21:39:00,
2013-08-31 16:44:00,82.8,63.9,28.91,South,180,4.6,4.6,53,0.00,CLR,,0.00,WeatherDisplay:10.37,2013-08-31 21:44:00,
2013-08-31 16:49:00,82.9,63.5,28.90,South,180,3.5,3.5,52,0.00,CLR,,0.00,WeatherDisplay:10.37,2013-08-31 21:49:00,
2013-08-31 16:54:00,82.9,63.0,28.91,SE,135,3.5,3.5,51,0.00,CLR,,0.00,WeatherDisplay:10.37,2013-08-31 21:54:00,
2013-08-31 16:59:00,83.5,63.4,28.91,SE,135,2.3,2.3,51,0.00,CLR,,0.00,WeatherDisplay:10.37,2013-08-31 21:59:00,
2013-08-31 17:04:00,83.8,63.8,28.91,SE,135,2.3,0.0,51,0.00,CLR,,0.00,WeatherDisplay:10.37,2013-08-31 22:04:00,
2013-08-31 17:09:00,83.1,63.1,28.91,East,90,4.6,4.6,51,0.00,CLR,,0.00,WeatherDisplay:10.37,2013-08-31 22:09:00,
2013-08-31 17:14:00,83.1,62.6,28.91,East,90,3.5,3.5,50,0.00,CLR,,0.00,WeatherDisplay:10.37,2013-08-31 22:14:00,
2013-08-31 17:19:00,82.2,63.4,28.91,SW,225,2.3,2.3,53,0.00,CLR,,0.00,WeatherDisplay:10.37,2013-08-31 22:19:00,
2013-08-31 17:24:00,82.4,63.5,28.91,SE,135,4.5,4.5,53,0.00,CLR,,0.00,WeatherDisplay:10.37,2013-08-31 22:24:00,
2013-08-31 17:29:00,81.1,62.9,28.90,SE,135,3.5,3.5,54,0.00,CLR,,0.00,WeatherDisplay:10.37,2013-08-31 22:29:00,
2013-08-31 17:34:00,79.7,63.6,28.90,East,90,5.8,5.8,58,0.00,CLR,,0.00,WeatherDisplay:10.37,2013-08-31 22:34:00,
2013-08-31 17:39:00,78.6,64.5,28.90,South,180,8.1,8.1,62,0.00,CLR,,0.00,WeatherDisplay:10.37,2013-08-31 22:39:00,
2013-08-31 17:44:00,78.3,64.6,28.90,East,90,3.8,3.8,63,0.00,CLR,,0.00,WeatherDisplay:10.37,2013-08-31 22:44:00,
2013-08-31 17:49:00,78.3,64.6,28.90,SW,225,5.8,5.8,63,0.00,CLR,,0.00,WeatherDisplay:10.37,2013-08-31 22:49:00,
2013-08-31 17:54:00,79.7,64.6,28.89,South,180,3.5,3.5,60,0.00,CLR,,0.00,WeatherDisplay:10.37,2013-08-31 22:54:00,
2013-08-31 17:59:00,79.9,64.8,28.89,SE,135,6.9,6.9,60,0.00,CLR,,0.00,WeatherDisplay:10.37,2013-08-31 22:59:00,
2013-08-31 18:04:00,80.1,64.4,28.89,SE,135,3.5,3.5,59,0.00,CLR,,0.00,WeatherDisplay:10.37,2013-08-31 23:04:00,
2013-08-31 18:09:00,80.4,64.8,28.89,SE,135,3.5,3.5,59,0.00,CLR,,0.00,WeatherDisplay:10.37,2013-08-31 23:09:00,
2013-08-31 18:14:00,80.2,64.6,28.89,South,180,5.8,5.8,59,0.00,CLR,,0.00,WeatherDisplay:10.37,2013-08-31 23:14:00,
2013-08-31 18:20:00,79.9,64.8,28.89,East,90,4.6,4.6,60,0.00,CLR,,0.00,WeatherDisplay:10.37,2013-08-31 23:20:00,
2013-08-31 18:25:00,78.6,64.0,28.89,SE,135,5.8,5.8,61,0.00,CLR,,0.00,WeatherDisplay:10.37,2013-08-31 23:25:00,
2013-08-31 18:30:00,77.5,64.4,28.89,SE,135,3.5,3.5,64,0.00,CLR,,0.00,WeatherDisplay:10.37,2013-08-31 23:30:00,
2013-08-31 18:35:00,76.8,64.2,28.89,SE,135,3.5,3.5,65,0.00,CLR,,0.00,WeatherDisplay:10.37,2013-08-31 23:35:00,
2013-08-31 18:40:00,76.1,63.9,28.88,South,180,3.5,3.5,66,0.00,CLR,,0.00,WeatherDisplay:10.37,2013-08-31 23:40:00,
2013-08-31 18:45:00,75.7,64.0,28.88,South,180,3.5,3.5,67,0.00,CLR,,0.00,WeatherDisplay:10.37,2013-08-31 23:45:00,
2013-08-31 18:50:00,75.4,64.1,28.88,South,180,3.5,3.5,68,0.00,CLR,,0.00,WeatherDisplay:10.37,2013-08-31 23:50:00,
2013-08-31 18:55:00,75.4,64.1,28.87,South,180,2.3,2.3,68,0.00,CLR,,0.00,WeatherDisplay:10.37,2013-08-31 23:55:00,
2013-08-31 19:00:00,74.8,63.6,28.87,South,180,2.3,0.0,68,0.00,CLR,,0.00,WeatherDisplay:10.37,2013-09-01 00:00:00,
2013-08-31 19:05:00,74.5,63.2,28.87,SE,135,2.3,0.0,68,0.00,CLR,,0.00,WeatherDisplay:10.37,2013-09-01 00:05:00,
2013-08-31 19:10:00,74.5,63.6,28.88,South,180,1.2,0.0,69,0.00,CLR,,0.00,WeatherDisplay:10.37,2013-09-01 00:10:00,
2013-08-31 19:15:00,73.8,63.4,28.88,SW,225,2.3,2.3,70,0.00,CLR,,0.00,WeatherDisplay:10.37,2013-09-01 00:15:00,
2013-08-31 19:20:00,73.6,63.2,28.88,South,180,2.3,2.3,70,0.00,CLR,,0.00,WeatherDisplay:10.37,2013-09-01 00:20:00,
2013-08-31 19:25:00,73.4,63.0,28.89,SE,135,1.2,0.0,70,0.00,CLR,,0.00,WeatherDisplay:10.37,2013-09-01 00:25:00,
2013-08-31 19:30:00,72.9,63.3,28.88,South,180,0.0,0.0,72,0.00,CLR,,0.00,WeatherDisplay:10.37,2013-09-01 00:30:00,
2013-08-31 19:35:00,72.5,63.4,28.89,South,180,0.0,0.0,73,0.00,CLR,,0.00,WeatherDisplay:10.37,2013-09-01 00:35:00,
2013-08-31 19:40:00,72.3,63.2,28.90,South,180,0.0,0.0,73,0.00,CLR,,0.00,WeatherDisplay:10.37,2013-09-01 00:40:00,
2013-08-31 19:45:00,71.8,62.7,28.91,NW,315,0.0,0.0,73,0.00,CLR,,0.00,WeatherDisplay:10.37,2013-09-01 00:45:00,
2013-08-31 19:50:00,71.8,63.0,28.92,NW,315,0.0,0.0,74,0.00,CLR,,0.00,WeatherDisplay:10.37,2013-09-01 00:50:00,
2013-08-31 19:55:00,71.6,62.9,28.92,NW,315,0.0,0.0,74,0.00,CLR,,0.00,WeatherDisplay:10.37,2013-09-01 00:55:00,
2013-08-31 20:00:00,71.2,62.9,28.91,NW,315,0.0,0.0,75,0.00,CLR,,0.00,WeatherDisplay:10.37,2013-09-01 01:00:00,
2013-08-31 20:05:00,70.9,62.6,28.92,NW,315,0.0,0.0,75,0.00,CLR,,0.00,WeatherDisplay:10.37,2013-09-01 01:05:00,
2013-08-31 20:10:00,70.5,62.6,28.92,NW,315,0.0,0.0,76,0.00,CLR,,0.00,WeatherDisplay:10.37,2013-09-01 01:10:00,
2013-08-31 20:15:00,70.2,62.6,28.92,NW,315,0.0,0.0,77,0.00,CLR,,0.00,WeatherDisplay:10.37,2013-09-01 01:15:00,
2013-08-31 20:20:00,69.8,62.6,28.93,NW,315,0.0,0.0,78,0.00,CLR,,0.00,WeatherDisplay:10.37,2013-09-01 01:20:00,
2013-08-31 20:25:00,69.6,62.8,28.92,NW,315,0.0,0.0,79,0.00,CLR,,0.00,WeatherDisplay:10.37,2013-09-01 01:25:00,
2013-08-31 20:30:00,69.6,62.8,28.92,NW,315,0.0,0.0,79,0.00,CLR,,0.00,WeatherDisplay:10.37,2013-09-01 01:30:00,
2013-08-31 20:35:00,69.1,63.0,28.92,NW,315,0.0,0.0,81,0.00,CLR,,0.00,WeatherDisplay:10.37,2013-09-01 01:35:00,
2013-08-31 20:40:00,68.7,63.0,28.92,NE,45,0.0,0.0,82,0.00,CLR,,0.00,WeatherDisplay:10.37,2013-09-01 01:40:00,
2013-08-31 20:45:00,68.5,63.2,28.93,NE,45,0.0,0.0,83,0.00,CLR,,0.00,WeatherDisplay:10.37,2013-09-01 01:45:00,
2013-08-31 20:50:00,68.2,62.8,28.93,NE,45,0.0,0.0,83,0.00,CLR,,0.00,WeatherDisplay:10.37,2013-09-01 01:50:00,
2013-08-31 20:55:00,68.0,62.6,28.93,NE,45,0.0,0.0,83,0.00,CLR,,0.00,WeatherDisplay:10.37,2013-09-01 01:55:00,
2013-08-31 21:00:00,67.8,62.8,28.92,NE,45,0.0,0.0,84,0.00,CLR,,0.00,WeatherDisplay:10.37,2013-09-01 02:00:00,
2013-08-31 21:05:00,67.8,62.8,28.93,NE,45,0.0,0.0,84,0.00,CLR,,0.00,WeatherDisplay:10.37,2013-09-01 02:05:00,
2013-08-31 21:10:00,67.6,62.6,28.93,NE,45,0.0,0.0,84,0.00,CLR,,0.00,WeatherDisplay:10.37,2013-09-01 02:10:00,
2013-08-31 21:15:00,67.3,62.6,28.93,NE,45,0.0,0.0,85,0.00,CLR,,0.00,WeatherDisplay:10.37,2013-09-01 02:15:00,
2013-08-31 21:20:00,67.1,62.4,28.93,NE,45,0.0,0.0,85,0.00,CLR,,0.00,WeatherDisplay:10.37,2013-09-01 02:20:00,
2013-08-31 21:25:00,67.1,63.1,28.93,SW,225,0.0,0.0,87,0.00,CLR,,0.00,WeatherDisplay:10.37,2013-09-01 02:25:00,
2013-08-31 21:30:00,67.3,63.3,28.93,SW,225,0.0,0.0,87,0.00,CLR,,0.00,WeatherDisplay:10.37,2013-09-01 02:30:00,
2013-08-31 21:35:00,67.3,63.3,28.93,SW,225,0.0,0.0,87,0.00,CLR,,0.00,WeatherDisplay:10.37,2013-09-01 02:35:00,
2013-08-31 21:40:00,66.9,62.9,28.93,SW,225,0.0,0.0,87,0.00,CLR,,0.00,WeatherDisplay:10.37,2013-09-01 02:40:00,
2013-08-31 21:45:00,66.7,62.7,28.92,SW,225,0.0,0.0,87,0.00,CLR,,0.00,WeatherDisplay:10.37,2013-09-01 02:45:00,
2013-08-31 21:50:00,66.9,63.2,28.92,SW,225,0.0,0.0,88,0.00,CLR,,0.00,WeatherDisplay:10.37,2013-09-01 02:50:00,
2013-08-31 21:55:00,66.7,63.4,28.92,South,180,2.3,2.3,89,0.00,CLR,,0.00,WeatherDisplay:10.37,2013-09-01 02:55:00,
2013-08-31 22:00:00,66.7,63.7,28.92,South,180,1.2,1.2,90,0.00,CLR,,0.00,WeatherDisplay:10.37,2013-09-01 03:00:00,
2013-08-31 22:05:00,66.7,63.7,28.92,South,180,1.2,1.2,90,0.00,CLR,,0.00,WeatherDisplay:10.37,2013-09-01 03:05:00,
2013-08-31 22:10:00,66.4,63.4,28.92,South,180,2.3,2.3,90,0.00,CLR,,0.00,WeatherDisplay:10.37,2013-09-01 03:10:00,
2013-08-31 22:15:00,66.4,63.4,28.92,South,180,2.3,0.0,90,0.00,CLR,,0.00,WeatherDisplay:10.37,2013-09-01 03:15:00,
2013-08-31 22:20:00,66.4,63.0,28.92,South,180,0.0,0.0,89,0.00,CLR,,0.00,WeatherDisplay:10.37,2013-09-01 03:20:00,
2013-08-31 22:25:00,66.2,62.9,28.92,South,180,0.0,0.0,89,0.00,CLR,,0.00,WeatherDisplay:10.37,2013-09-01 03:25:00,
2013-08-31 22:30:00,66.2,62.9,28.92,West,270,0.0,0.0,89,0.00,CLR,,0.00,WeatherDisplay:10.37,2013-09-01 03:30:00,
2013-08-31 22:35:00,66.4,63.0,28.93,SW,225,1.2,0.0,89,0.00,CLR,,0.00,WeatherDisplay:10.37,2013-09-01 03:35:00,
2013-08-31 22:40:00,66.4,63.0,28.92,SW,225,0.0,0.0,89,0.00,CLR,,0.00,WeatherDisplay:10.37,2013-09-01 03:40:00,
2013-08-31 22:45:00,66.2,62.9,28.92,SW,225,0.0,0.0,89,0.00,CLR,,0.00,WeatherDisplay:10.37,2013-09-01 03:45:00,
2013-08-31 22:50:00,66.2,62.9,28.92,SW,225,0.0,0.0,89,0.00,CLR,,0.00,WeatherDisplay:10.37,2013-09-01 03:50:00,
2013-08-31 22:55:00,66.2,63.2,28.92,South,180,1.2,1.2,90,0.00,CLR,,0.00,WeatherDisplay:10.37,2013-09-01 03:55:00,
2013-08-31 23:00:00,66.4,63.4,28.91,South,180,2.3,2.3,90,0.00,CLR,,0.00,WeatherDisplay:10.37,2013-09-01 04:00:00,
2013-08-31 23:01:00,66.4,63.4,28.91,South,180,2.3,2.3,90,0.00,CLR,,0.00,WeatherDisplay:10.37,2013-09-01 04:01:00,
2013-08-31 23:06:00,66.4,63.4,28.91,South,180,2.3,2.3,90,0.00,CLR,,0.00,WeatherDisplay:10.37,2013-09-01 04:06:00,
2013-08-31 23:11:00,66.2,62.9,28.91,South,180,0.0,0.0,89,0.00,CLR,,0.00,WeatherDisplay:10.37,2013-09-01 04:11:00,
2013-08-31 23:16:00,66.2,62.9,28.91,South,180,0.0,0.0,89,0.00,CLR,,0.00,WeatherDisplay:10.37,2013-09-01 04:16:00,
2013-08-31 23:21:00,66.0,63.0,28.90,South,180,1.2,0.0,90,0.00,CLR,,0.00,WeatherDisplay:10.37,2013-09-01 04:21:00,
2013-08-31 23:26:00,65.8,62.8,28.90,South,180,0.0,0.0,90,0.00,CLR,,0.00,WeatherDisplay:10.37,2013-09-01 04:26:00,
2013-08-31 23:31:00,65.8,62.8,28.90,South,180,0.0,0.0,90,0.00,CLR,,0.00,WeatherDisplay:10.37,2013-09-01 04:31:00,
2013-08-31 23:36:00,65.7,62.6,28.90,South,180,1.2,0.0,90,0.00,CLR,,0.00,WeatherDisplay:10.37,2013-09-01 04:36:00,
2013-08-31 23:41:00,65.5,62.5,28.90,South,180,0.0,0.0,90,0.00,CLR,,0.00,WeatherDisplay:10.37,2013-09-01 04:41:00,
2013-08-31 23:46:00,65.3,62.3,28.90,South,180,0.0,0.0,90,0.00,CLR,,0.00,WeatherDisplay:10.37,2013-09-01 04:46:00,
2013-08-31 23:51:00,65.1,62.1,28.90,South,180,0.0,0.0,90,0.00,CLR,,0.00,WeatherDisplay:10.37,2013-09-01 04:51:00,
2013-08-31 23:56:00,64.9,61.9,28.90,South,180,0.0,0.0,90,0.00,CLR,,0.00,WeatherDisplay:10.37,2013-09-01 04:56:00,